sensor_id;sensor_type;location;lat;lon;timestamp;P1;durP1;ratioP1;P2;durP2;ratioP2
61317;SDS011;47201;40.428;-8.436;2022-12-07T00:01:07;37.25;;;25.50;;
61317;SDS011;47201;40.428;-8.436;2022-12-07T00:03:13;30.25;;;19.55;;
61317;SDS011;47201;40.428;-8.436;2022-12-07T00:05:14;34.65;;;19.38;;
61317;SDS011;47201;40.428;-8.436;2022-12-07T00:07:15;33.15;;;23.65;;
61317;SDS011;47201;40.428;-8.436;2022-12-07T00:09:16;22.13;;;16.42;;
61317;SDS011;47201;40.428;-8.436;2022-12-07T00:11:19;32.13;;;18.75;;
61317;SDS011;47201;40.428;-8.436;2022-12-07T00:13:21;27.10;;;17.52;;
61317;SDS011;47201;40.428;-8.436;2022-12-07T00:15:22;30.10;;;21.63;;
61317;SDS011;47201;40.428;-8.436;2022-12-07T00:17:23;24.83;;;22.23;;
61317;SDS011;47201;40.428;-8.436;2022-12-07T00:19:23;29.80;;;23.08;;
61317;SDS011;47201;40.428;-8.436;2022-12-07T00:21:26;25.85;;;16.33;;
61317;SDS011;47201;40.428;-8.436;2022-12-07T00:23:28;27.27;;;21.92;;
61317;SDS011;47201;40.428;-8.436;2022-12-07T00:25:29;27.17;;;16.60;;
61317;SDS011;47201;40.428;-8.436;2022-12-07T00:27:30;30.52;;;23.48;;
61317;SDS011;47201;40.428;-8.436;2022-12-07T00:29:31;30.42;;;15.98;;
61317;SDS011;47201;40.428;-8.436;2022-12-07T00:31:33;27.67;;;18.30;;
61317;SDS011;47201;40.428;-8.436;2022-12-07T00:33:39;24.60;;;17.13;;
61317;SDS011;47201;40.428;-8.436;2022-12-07T00:35:39;28.33;;;21.42;;
61317;SDS011;47201;40.428;-8.436;2022-12-07T00:37:40;24.70;;;16.60;;
61317;SDS011;47201;40.428;-8.436;2022-12-07T00:39:41;31.23;;;21.52;;
61317;SDS011;47201;40.428;-8.436;2022-12-07T00:41:42;23.85;;;16.33;;
61317;SDS011;47201;40.428;-8.436;2022-12-07T00:43:43;25.48;;;18.08;;
61317;SDS011;47201;40.428;-8.436;2022-12-07T00:45:45;28.20;;;19.20;;
61317;SDS011;47201;40.428;-8.436;2022-12-07T00:47:46;32.90;;;21.45;;
61317;SDS011;47201;40.428;-8.436;2022-12-07T00:49:46;28.15;;;17.42;;
61317;SDS011;47201;40.428;-8.436;2022-12-07T00:51:48;31.27;;;25.95;;
61317;SDS011;47201;40.428;-8.436;2022-12-07T00:53:49;25.42;;;18.35;;
61317;SDS011;47201;40.428;-8.436;2022-12-07T00:59:53;24.17;;;16.23;;
61317;SDS011;47201;40.428;-8.436;2022-12-07T01:01:57;24.38;;;16.45;;
61317;SDS011;47201;40.428;-8.436;2022-12-07T01:03:58;30.02;;;18.60;;
61317;SDS011;47201;40.428;-8.436;2022-12-07T01:06:01;33.35;;;26.10;;
61317;SDS011;47201;40.428;-8.436;2022-12-07T01:08:02;35.95;;;27.92;;
61317;SDS011;47201;40.428;-8.436;2022-12-07T01:12:04;27.07;;;19.17;;
61317;SDS011;47201;40.428;-8.436;2022-12-07T01:14:05;27.08;;;19.10;;
61317;SDS011;47201;40.428;-8.436;2022-12-07T01:16:06;30.05;;;22.23;;
61317;SDS011;47201;40.428;-8.436;2022-12-07T01:18:10;33.67;;;20.70;;
61317;SDS011;47201;40.428;-8.436;2022-12-07T01:20:11;32.88;;;20.02;;
61317;SDS011;47201;40.428;-8.436;2022-12-07T01:22:12;32.90;;;25.15;;
61317;SDS011;47201;40.428;-8.436;2022-12-07T01:24:13;34.05;;;20.48;;
61317;SDS011;47201;40.428;-8.436;2022-12-07T01:26:15;31.80;;;18.60;;
61317;SDS011;47201;40.428;-8.436;2022-12-07T01:28:18;36.88;;;20.67;;
61317;SDS011;47201;40.428;-8.436;2022-12-07T01:30:19;33.30;;;19.83;;
61317;SDS011;47201;40.428;-8.436;2022-12-07T01:32:20;32.65;;;20.67;;
61317;SDS011;47201;40.428;-8.436;2022-12-07T01:34:21;42.88;;;29.95;;
61317;SDS011;47201;40.428;-8.436;2022-12-07T01:36:22;33.20;;;20.65;;
61317;SDS011;47201;40.428;-8.436;2022-12-07T01:38:29;27.75;;;19.90;;
61317;SDS011;47201;40.428;-8.436;2022-12-07T01:40:31;45.33;;;32.15;;
61317;SDS011;47201;40.428;-8.436;2022-12-07T01:42:32;36.92;;;29.13;;
61317;SDS011;47201;40.428;-8.436;2022-12-07T01:45:14;31.77;;;20.95;;
61317;SDS011;47201;40.428;-8.436;2022-12-07T01:47:12;29.98;;;20.40;;
61317;SDS011;47201;40.428;-8.436;2022-12-07T01:51:43;33.25;;;27.85;;
61317;SDS011;47201;40.428;-8.436;2022-12-07T01:53:46;28.23;;;19.42;;
61317;SDS011;47201;40.428;-8.436;2022-12-07T01:55:48;31.80;;;26.65;;
61317;SDS011;47201;40.428;-8.436;2022-12-07T01:57:53;29.13;;;19.20;;
61317;SDS011;47201;40.428;-8.436;2022-12-07T01:59:55;31.85;;;20.10;;
61317;SDS011;47201;40.428;-8.436;2022-12-07T02:01:57;35.28;;;27.38;;
61317;SDS011;47201;40.428;-8.436;2022-12-07T02:03:58;26.95;;;18.65;;
61317;SDS011;47201;40.428;-8.436;2022-12-07T02:05:58;37.30;;;26.25;;
61317;SDS011;47201;40.428;-8.436;2022-12-07T02:08:00;40.28;;;22.08;;
61317;SDS011;47201;40.428;-8.436;2022-12-07T02:10:18;46.78;;;27.42;;
61317;SDS011;47201;40.428;-8.436;2022-12-07T02:12:21;39.25;;;21.65;;
61317;SDS011;47201;40.428;-8.436;2022-12-07T02:14:23;43.85;;;22.83;;
61317;SDS011;47201;40.428;-8.436;2022-12-07T02:30:13;44.63;;;25.92;;
61317;SDS011;47201;40.428;-8.436;2022-12-07T02:32:25;45.60;;;25.35;;
61317;SDS011;47201;40.428;-8.436;2022-12-07T02:34:51;36.92;;;23.27;;
61317;SDS011;47201;40.428;-8.436;2022-12-07T02:37:06;39.20;;;21.75;;
61317;SDS011;47201;40.428;-8.436;2022-12-07T02:39:17;43.63;;;31.27;;
61317;SDS011;47201;40.428;-8.436;2022-12-07T02:41:28;35.00;;;20.77;;
61317;SDS011;47201;40.428;-8.436;2022-12-07T02:43:38;41.45;;;22.42;;
61317;SDS011;47201;40.428;-8.436;2022-12-07T02:45:43;38.35;;;23.30;;
61317;SDS011;47201;40.428;-8.436;2022-12-07T02:47:46;43.45;;;28.30;;
61317;SDS011;47201;40.428;-8.436;2022-12-07T02:49:51;27.70;;;17.83;;
61317;SDS011;47201;40.428;-8.436;2022-12-07T02:51:52;28.98;;;19.38;;
61317;SDS011;47201;40.428;-8.436;2022-12-07T02:53:54;31.33;;;18.75;;
61317;SDS011;47201;40.428;-8.436;2022-12-07T02:55:54;30.57;;;17.83;;
61317;SDS011;47201;40.428;-8.436;2022-12-07T03:00:22;43.47;;;21.67;;
61317;SDS011;47201;40.428;-8.436;2022-12-07T03:12:18;41.63;;;22.70;;
61317;SDS011;47201;40.428;-8.436;2022-12-07T03:14:25;48.13;;;25.73;;
61317;SDS011;47201;40.428;-8.436;2022-12-07T03:16:35;46.22;;;25.92;;
61317;SDS011;47201;40.428;-8.436;2022-12-07T03:18:44;43.83;;;26.08;;
61317;SDS011;47201;40.428;-8.436;2022-12-07T03:20:50;50.33;;;28.27;;
61317;SDS011;47201;40.428;-8.436;2022-12-07T03:22:55;48.90;;;25.17;;
61317;SDS011;47201;40.428;-8.436;2022-12-07T03:24:58;37.95;;;23.85;;
61317;SDS011;47201;40.428;-8.436;2022-12-07T03:27:13;48.17;;;26.40;;
61317;SDS011;47201;40.428;-8.436;2022-12-07T03:29:22;42.22;;;25.58;;
61317;SDS011;47201;40.428;-8.436;2022-12-07T03:31:28;42.22;;;26.65;;
61317;SDS011;47201;40.428;-8.436;2022-12-07T03:33:38;40.90;;;25.10;;
61317;SDS011;47201;40.428;-8.436;2022-12-07T03:36:06;73.45;;;33.03;;
61317;SDS011;47201;40.428;-8.436;2022-12-07T03:41:09;63.20;;;30.52;;
61317;SDS011;47201;40.428;-8.436;2022-12-07T03:43:11;69.78;;;31.20;;
61317;SDS011;47201;40.428;-8.436;2022-12-07T03:45:12;75.38;;;30.40;;
61317;SDS011;47201;40.428;-8.436;2022-12-07T03:47:16;84.93;;;31.45;;
61317;SDS011;47201;40.428;-8.436;2022-12-07T03:54:05;65.35;;;29.00;;
61317;SDS011;47201;40.428;-8.436;2022-12-07T03:56:13;75.22;;;30.35;;
61317;SDS011;47201;40.428;-8.436;2022-12-07T04:00:20;53.85;;;27.08;;
61317;SDS011;47201;40.428;-8.436;2022-12-07T04:02:23;55.95;;;29.98;;
61317;SDS011;47201;40.428;-8.436;2022-12-07T04:04:26;62.30;;;28.77;;
61317;SDS011;47201;40.428;-8.436;2022-12-07T04:06:28;53.30;;;28.70;;
61317;SDS011;47201;40.428;-8.436;2022-12-07T04:08:28;74.85;;;30.55;;
61317;SDS011;47201;40.428;-8.436;2022-12-07T04:10:29;58.75;;;29.35;;
61317;SDS011;47201;40.428;-8.436;2022-12-07T04:12:30;92.65;;;52.17;;
61317;SDS011;47201;40.428;-8.436;2022-12-07T04:14:31;68.28;;;30.98;;
61317;SDS011;47201;40.428;-8.436;2022-12-07T04:16:31;67.88;;;30.70;;
61317;SDS011;47201;40.428;-8.436;2022-12-07T04:18:32;62.63;;;28.20;;
61317;SDS011;47201;40.428;-8.436;2022-12-07T04:20:33;56.92;;;26.67;;
61317;SDS011;47201;40.428;-8.436;2022-12-07T04:22:34;52.40;;;27.58;;
61317;SDS011;47201;40.428;-8.436;2022-12-07T04:24:34;56.10;;;28.05;;
61317;SDS011;47201;40.428;-8.436;2022-12-07T04:26:35;64.45;;;30.75;;
61317;SDS011;47201;40.428;-8.436;2022-12-07T04:28:36;52.88;;;28.38;;
61317;SDS011;47201;40.428;-8.436;2022-12-07T04:30:37;58.50;;;28.90;;
61317;SDS011;47201;40.428;-8.436;2022-12-07T04:32:38;50.10;;;28.27;;
61317;SDS011;47201;40.428;-8.436;2022-12-07T04:34:38;60.05;;;29.73;;
61317;SDS011;47201;40.428;-8.436;2022-12-07T04:36:40;70.25;;;31.05;;
61317;SDS011;47201;40.428;-8.436;2022-12-07T04:38:41;64.25;;;32.05;;
61317;SDS011;47201;40.428;-8.436;2022-12-07T04:40:42;66.53;;;31.77;;
61317;SDS011;47201;40.428;-8.436;2022-12-07T04:42:43;54.13;;;27.85;;
61317;SDS011;47201;40.428;-8.436;2022-12-07T04:44:43;61.13;;;27.25;;
61317;SDS011;47201;40.428;-8.436;2022-12-07T04:46:44;42.88;;;25.40;;
61317;SDS011;47201;40.428;-8.436;2022-12-07T04:48:46;38.33;;;22.75;;
61317;SDS011;47201;40.428;-8.436;2022-12-07T04:50:47;42.45;;;22.42;;
61317;SDS011;47201;40.428;-8.436;2022-12-07T04:52:49;42.72;;;24.70;;
61317;SDS011;47201;40.428;-8.436;2022-12-07T04:54:50;34.45;;;21.90;;
61317;SDS011;47201;40.428;-8.436;2022-12-07T04:56:51;35.88;;;22.02;;
61317;SDS011;47201;40.428;-8.436;2022-12-07T04:58:52;41.35;;;23.77;;
61317;SDS011;47201;40.428;-8.436;2022-12-07T05:00:54;44.85;;;25.52;;
61317;SDS011;47201;40.428;-8.436;2022-12-07T05:02:55;46.03;;;25.60;;
61317;SDS011;47201;40.428;-8.436;2022-12-07T05:04:56;63.90;;;29.60;;
61317;SDS011;47201;40.428;-8.436;2022-12-07T05:06:57;47.60;;;26.40;;
61317;SDS011;47201;40.428;-8.436;2022-12-07T05:08:57;50.92;;;27.30;;
61317;SDS011;47201;40.428;-8.436;2022-12-07T05:10:58;46.83;;;26.50;;
61317;SDS011;47201;40.428;-8.436;2022-12-07T05:12:59;52.80;;;27.50;;
61317;SDS011;47201;40.428;-8.436;2022-12-07T05:15:00;36.22;;;24.30;;
61317;SDS011;47201;40.428;-8.436;2022-12-07T05:17:01;42.72;;;24.38;;
61317;SDS011;47201;40.428;-8.436;2022-12-07T05:19:02;37.80;;;22.13;;
61317;SDS011;47201;40.428;-8.436;2022-12-07T05:21:03;35.15;;;21.05;;
61317;SDS011;47201;40.428;-8.436;2022-12-07T05:23:04;40.50;;;21.48;;
61317;SDS011;47201;40.428;-8.436;2022-12-07T05:25:04;32.95;;;21.65;;
61317;SDS011;47201;40.428;-8.436;2022-12-07T05:27:05;38.80;;;22.38;;
61317;SDS011;47201;40.428;-8.436;2022-12-07T05:29:06;43.80;;;23.05;;
61317;SDS011;47201;40.428;-8.436;2022-12-07T05:31:07;45.40;;;22.80;;
61317;SDS011;47201;40.428;-8.436;2022-12-07T05:33:08;38.80;;;24.70;;
61317;SDS011;47201;40.428;-8.436;2022-12-07T05:35:09;36.88;;;23.50;;
61317;SDS011;47201;40.428;-8.436;2022-12-07T05:37:10;41.92;;;24.90;;
61317;SDS011;47201;40.428;-8.436;2022-12-07T05:39:10;38.60;;;22.67;;
61317;SDS011;47201;40.428;-8.436;2022-12-07T05:41:12;40.58;;;25.10;;
61317;SDS011;47201;40.428;-8.436;2022-12-07T05:43:33;39.45;;;26.48;;
61317;SDS011;47201;40.428;-8.436;2022-12-07T05:45:34;40.67;;;25.85;;
61317;SDS011;47201;40.428;-8.436;2022-12-07T05:47:35;44.80;;;27.63;;
61317;SDS011;47201;40.428;-8.436;2022-12-07T05:49:36;45.85;;;27.45;;
61317;SDS011;47201;40.428;-8.436;2022-12-07T05:51:37;45.10;;;24.98;;
61317;SDS011;47201;40.428;-8.436;2022-12-07T05:53:38;42.50;;;25.75;;
61317;SDS011;47201;40.428;-8.436;2022-12-07T05:55:38;45.23;;;26.33;;
61317;SDS011;47201;40.428;-8.436;2022-12-07T05:57:39;45.42;;;27.48;;
61317;SDS011;47201;40.428;-8.436;2022-12-07T05:59:40;39.70;;;25.73;;
61317;SDS011;47201;40.428;-8.436;2022-12-07T06:01:40;42.13;;;23.90;;
61317;SDS011;47201;40.428;-8.436;2022-12-07T06:03:41;40.03;;;25.58;;
61317;SDS011;47201;40.428;-8.436;2022-12-07T06:05:42;46.15;;;25.27;;
61317;SDS011;47201;40.428;-8.436;2022-12-07T06:07:43;35.25;;;23.85;;
61317;SDS011;47201;40.428;-8.436;2022-12-07T06:09:43;35.57;;;24.90;;
61317;SDS011;47201;40.428;-8.436;2022-12-07T06:11:44;36.08;;;22.35;;
61317;SDS011;47201;40.428;-8.436;2022-12-07T06:14:04;32.03;;;20.08;;
61317;SDS011;47201;40.428;-8.436;2022-12-07T06:16:04;38.97;;;27.00;;
61317;SDS011;47201;40.428;-8.436;2022-12-07T06:18:06;28.48;;;20.05;;
61317;SDS011;47201;40.428;-8.436;2022-12-07T06:20:06;34.85;;;20.20;;
61317;SDS011;47201;40.428;-8.436;2022-12-07T06:22:08;38.40;;;20.33;;
61317;SDS011;47201;40.428;-8.436;2022-12-07T06:24:11;31.63;;;19.95;;
61317;SDS011;47201;40.428;-8.436;2022-12-07T06:26:12;27.40;;;18.67;;
61317;SDS011;47201;40.428;-8.436;2022-12-07T06:28:13;27.00;;;18.20;;
61317;SDS011;47201;40.428;-8.436;2022-12-07T06:30:14;28.17;;;18.90;;
61317;SDS011;47201;40.428;-8.436;2022-12-07T06:32:15;31.25;;;18.42;;
61317;SDS011;47201;40.428;-8.436;2022-12-07T06:34:17;30.35;;;17.35;;
61317;SDS011;47201;40.428;-8.436;2022-12-07T06:36:19;26.13;;;17.50;;
61317;SDS011;47201;40.428;-8.436;2022-12-07T06:38:20;26.70;;;17.55;;
61317;SDS011;47201;40.428;-8.436;2022-12-07T06:40:21;25.48;;;18.05;;
61317;SDS011;47201;40.428;-8.436;2022-12-07T06:42:22;24.90;;;16.88;;
61317;SDS011;47201;40.428;-8.436;2022-12-07T06:44:23;22.05;;;16.60;;
61317;SDS011;47201;40.428;-8.436;2022-12-07T06:46:24;22.98;;;15.82;;
61317;SDS011;47201;40.428;-8.436;2022-12-07T06:48:26;24.80;;;17.08;;
61317;SDS011;47201;40.428;-8.436;2022-12-07T06:50:26;23.98;;;16.23;;
61317;SDS011;47201;40.428;-8.436;2022-12-07T06:52:27;23.75;;;16.25;;
61317;SDS011;47201;40.428;-8.436;2022-12-07T06:54:28;21.77;;;15.95;;
61317;SDS011;47201;40.428;-8.436;2022-12-07T06:56:30;21.80;;;15.05;;
61317;SDS011;47201;40.428;-8.436;2022-12-07T06:58:31;20.65;;;14.35;;
61317;SDS011;47201;40.428;-8.436;2022-12-07T07:00:32;23.25;;;13.95;;
61317;SDS011;47201;40.428;-8.436;2022-12-07T07:02:34;19.75;;;13.98;;
61317;SDS011;47201;40.428;-8.436;2022-12-07T07:04:35;19.35;;;13.48;;
61317;SDS011;47201;40.428;-8.436;2022-12-07T07:06:36;16.60;;;13.20;;
61317;SDS011;47201;40.428;-8.436;2022-12-07T07:08:37;18.35;;;13.18;;
61317;SDS011;47201;40.428;-8.436;2022-12-07T07:10:39;19.60;;;13.07;;
61317;SDS011;47201;40.428;-8.436;2022-12-07T07:12:39;14.57;;;11.82;;
61317;SDS011;47201;40.428;-8.436;2022-12-07T07:14:40;16.27;;;11.95;;
61317;SDS011;47201;40.428;-8.436;2022-12-07T07:16:42;16.27;;;11.32;;
61317;SDS011;47201;40.428;-8.436;2022-12-07T07:18:42;15.52;;;12.10;;
61317;SDS011;47201;40.428;-8.436;2022-12-07T07:20:43;18.65;;;11.77;;
61317;SDS011;47201;40.428;-8.436;2022-12-07T07:22:44;15.57;;;11.07;;
61317;SDS011;47201;40.428;-8.436;2022-12-07T07:24:45;17.75;;;11.73;;
61317;SDS011;47201;40.428;-8.436;2022-12-07T07:26:45;15.93;;;11.30;;
61317;SDS011;47201;40.428;-8.436;2022-12-07T07:28:46;17.05;;;10.25;;
61317;SDS011;47201;40.428;-8.436;2022-12-07T07:30:47;14.98;;;11.07;;
61317;SDS011;47201;40.428;-8.436;2022-12-07T07:32:48;17.60;;;11.30;;
61317;SDS011;47201;40.428;-8.436;2022-12-07T07:34:49;15.68;;;10.43;;
61317;SDS011;47201;40.428;-8.436;2022-12-07T07:36:49;22.85;;;10.45;;
61317;SDS011;47201;40.428;-8.436;2022-12-07T07:38:50;13.40;;;9.90;;
61317;SDS011;47201;40.428;-8.436;2022-12-07T07:40:51;19.23;;;16.73;;
61317;SDS011;47201;40.428;-8.436;2022-12-07T07:42:52;13.90;;;10.45;;
61317;SDS011;47201;40.428;-8.436;2022-12-07T07:44:54;20.50;;;11.30;;
61317;SDS011;47201;40.428;-8.436;2022-12-07T07:46:55;23.30;;;11.10;;
61317;SDS011;47201;40.428;-8.436;2022-12-07T07:48:55;12.98;;;9.73;;
61317;SDS011;47201;40.428;-8.436;2022-12-07T07:50:56;17.38;;;10.82;;
61317;SDS011;47201;40.428;-8.436;2022-12-07T07:52:57;13.20;;;9.75;;
61317;SDS011;47201;40.428;-8.436;2022-12-07T07:54:58;25.58;;;12.23;;
61317;SDS011;47201;40.428;-8.436;2022-12-07T07:56:59;20.77;;;10.57;;
61317;SDS011;47201;40.428;-8.436;2022-12-07T07:59:00;20.52;;;10.95;;
61317;SDS011;47201;40.428;-8.436;2022-12-07T08:01:04;13.95;;;9.10;;
61317;SDS011;47201;40.428;-8.436;2022-12-07T08:03:05;14.82;;;10.02;;
61317;SDS011;47201;40.428;-8.436;2022-12-07T08:05:06;11.77;;;9.35;;
61317;SDS011;47201;40.428;-8.436;2022-12-07T08:07:07;10.30;;;9.15;;
61317;SDS011;47201;40.428;-8.436;2022-12-07T08:09:08;13.48;;;9.48;;
61317;SDS011;47201;40.428;-8.436;2022-12-07T08:11:09;10.93;;;9.10;;
61317;SDS011;47201;40.428;-8.436;2022-12-07T08:13:10;15.38;;;9.38;;
61317;SDS011;47201;40.428;-8.436;2022-12-07T08:15:11;11.88;;;8.75;;
61317;SDS011;47201;40.428;-8.436;2022-12-07T08:17:11;9.95;;;8.70;;
61317;SDS011;47201;40.428;-8.436;2022-12-07T08:21:14;15.60;;;13.40;;
61317;SDS011;47201;40.428;-8.436;2022-12-07T08:23:15;14.23;;;8.55;;
61317;SDS011;47201;40.428;-8.436;2022-12-07T08:25:16;16.15;;;9.15;;
61317;SDS011;47201;40.428;-8.436;2022-12-07T08:27:17;14.55;;;9.02;;
61317;SDS011;47201;40.428;-8.436;2022-12-07T08:29:18;12.45;;;8.88;;
61317;SDS011;47201;40.428;-8.436;2022-12-07T08:31:19;10.93;;;9.15;;
61317;SDS011;47201;40.428;-8.436;2022-12-07T08:33:20;10.45;;;8.38;;
61317;SDS011;47201;40.428;-8.436;2022-12-07T08:35:22;10.32;;;7.95;;
61317;SDS011;47201;40.428;-8.436;2022-12-07T08:37:23;10.43;;;8.13;;
61317;SDS011;47201;40.428;-8.436;2022-12-07T08:39:24;8.35;;;7.55;;
61317;SDS011;47201;40.428;-8.436;2022-12-07T08:41:24;13.60;;;9.23;;
61317;SDS011;47201;40.428;-8.436;2022-12-07T08:43:25;15.63;;;9.30;;
61317;SDS011;47201;40.428;-8.436;2022-12-07T08:45:26;20.10;;;9.73;;
61317;SDS011;47201;40.428;-8.436;2022-12-07T08:47:28;11.40;;;8.40;;
61317;SDS011;47201;40.428;-8.436;2022-12-07T08:49:33;11.30;;;8.15;;
61317;SDS011;47201;40.428;-8.436;2022-12-07T08:51:38;8.50;;;7.63;;
61317;SDS011;47201;40.428;-8.436;2022-12-07T08:53:40;8.75;;;7.03;;
61317;SDS011;47201;40.428;-8.436;2022-12-07T08:55:43;8.30;;;7.50;;
61317;SDS011;47201;40.428;-8.436;2022-12-07T08:57:45;10.45;;;7.65;;
61317;SDS011;47201;40.428;-8.436;2022-12-07T08:59:46;13.32;;;8.93;;
61317;SDS011;47201;40.428;-8.436;2022-12-07T09:01:46;13.23;;;8.32;;
61317;SDS011;47201;40.428;-8.436;2022-12-07T09:03:47;11.93;;;9.15;;
61317;SDS011;47201;40.428;-8.436;2022-12-07T09:05:48;11.30;;;6.85;;
61317;SDS011;47201;40.428;-8.436;2022-12-07T09:07:50;8.70;;;5.45;;
61317;SDS011;47201;40.428;-8.436;2022-12-07T09:09:54;11.90;;;6.43;;
61317;SDS011;47201;40.428;-8.436;2022-12-07T09:11:56;19.73;;;5.57;;
61317;SDS011;47201;40.428;-8.436;2022-12-07T09:13:56;8.52;;;5.22;;
61317;SDS011;47201;40.428;-8.436;2022-12-07T09:15:57;4.53;;;4.18;;
61317;SDS011;47201;40.428;-8.436;2022-12-07T09:17:58;9.18;;;4.63;;
61317;SDS011;47201;40.428;-8.436;2022-12-07T09:19:59;10.15;;;4.57;;
61317;SDS011;47201;40.428;-8.436;2022-12-07T09:22:01;6.18;;;4.85;;
61317;SDS011;47201;40.428;-8.436;2022-12-07T09:24:02;8.80;;;4.22;;
61317;SDS011;47201;40.428;-8.436;2022-12-07T09:26:03;7.95;;;4.38;;
61317;SDS011;47201;40.428;-8.436;2022-12-07T09:30:05;5.47;;;4.67;;
61317;SDS011;47201;40.428;-8.436;2022-12-07T09:32:07;4.78;;;4.07;;
61317;SDS011;47201;40.428;-8.436;2022-12-07T09:34:07;4.38;;;3.97;;
61317;SDS011;47201;40.428;-8.436;2022-12-07T09:36:08;4.13;;;3.83;;
61317;SDS011;47201;40.428;-8.436;2022-12-07T09:38:10;4.65;;;4.35;;
61317;SDS011;47201;40.428;-8.436;2022-12-07T09:40:11;4.00;;;3.80;;
61317;SDS011;47201;40.428;-8.436;2022-12-07T09:42:19;4.60;;;4.05;;
61317;SDS011;47201;40.428;-8.436;2022-12-07T09:44:25;5.10;;;4.38;;
61317;SDS011;47201;40.428;-8.436;2022-12-07T09:46:27;4.10;;;3.90;;
61317;SDS011;47201;40.428;-8.436;2022-12-07T09:48:30;4.03;;;3.83;;
61317;SDS011;47201;40.428;-8.436;2022-12-07T09:50:33;3.92;;;3.63;;
61317;SDS011;47201;40.428;-8.436;2022-12-07T09:54:39;3.90;;;3.60;;
61317;SDS011;47201;40.428;-8.436;2022-12-07T09:56:44;3.83;;;3.53;;
61317;SDS011;47201;40.428;-8.436;2022-12-07T10:02:57;4.15;;;3.85;;
61317;SDS011;47201;40.428;-8.436;2022-12-07T10:04:59;4.60;;;4.30;;
61317;SDS011;47201;40.428;-8.436;2022-12-07T10:07:00;5.30;;;3.85;;
61317;SDS011;47201;40.428;-8.436;2022-12-07T10:11:03;3.78;;;3.58;;
61317;SDS011;47201;40.428;-8.436;2022-12-07T10:13:07;4.00;;;3.80;;
61317;SDS011;47201;40.428;-8.436;2022-12-07T10:15:10;4.65;;;4.25;;
61317;SDS011;47201;40.428;-8.436;2022-12-07T10:17:31;4.32;;;3.88;;
61317;SDS011;47201;40.428;-8.436;2022-12-07T10:19:43;5.03;;;4.32;;
61317;SDS011;47201;40.428;-8.436;2022-12-07T10:22:04;4.15;;;3.92;;
61317;SDS011;47201;40.428;-8.436;2022-12-07T10:28:33;4.30;;;3.90;;
61317;SDS011;47201;40.428;-8.436;2022-12-07T10:33:15;4.00;;;3.17;;
61317;SDS011;47201;40.428;-8.436;2022-12-07T10:35:49;2.85;;;2.75;;
61317;SDS011;47201;40.428;-8.436;2022-12-07T10:37:50;3.25;;;3.05;;
61317;SDS011;47201;40.428;-8.436;2022-12-07T10:39:53;3.30;;;3.10;;
61317;SDS011;47201;40.428;-8.436;2022-12-07T10:41:57;2.90;;;2.80;;
61317;SDS011;47201;40.428;-8.436;2022-12-07T10:43:59;3.33;;;3.13;;
61317;SDS011;47201;40.428;-8.436;2022-12-07T10:53:23;3.20;;;2.85;;
61317;SDS011;47201;40.428;-8.436;2022-12-07T10:55:51;3.08;;;2.97;;
61317;SDS011;47201;40.428;-8.436;2022-12-07T11:00:12;3.40;;;3.20;;
61317;SDS011;47201;40.428;-8.436;2022-12-07T11:14:28;4.85;;;2.90;;
61317;SDS011;47201;40.428;-8.436;2022-12-07T11:19:24;3.42;;;3.22;;
61317;SDS011;47201;40.428;-8.436;2022-12-07T11:28:30;6.18;;;2.70;;
61317;SDS011;47201;40.428;-8.436;2022-12-07T11:33:34;4.55;;;2.70;;
61317;SDS011;47201;40.428;-8.436;2022-12-07T11:35:48;6.95;;;2.88;;
61317;SDS011;47201;40.428;-8.436;2022-12-07T11:38:49;3.83;;;2.70;;
61317;SDS011;47201;40.428;-8.436;2022-12-07T11:40:43;2.40;;;2.30;;
61317;SDS011;47201;40.428;-8.436;2022-12-07T11:42:52;3.70;;;2.30;;
61317;SDS011;47201;40.428;-8.436;2022-12-07T11:47:28;2.20;;;2.10;;
61317;SDS011;47201;40.428;-8.436;2022-12-07T11:49:53;2.80;;;2.60;;
61317;SDS011;47201;40.428;-8.436;2022-12-07T11:51:59;2.80;;;2.60;;
61317;SDS011;47201;40.428;-8.436;2022-12-07T11:54:21;2.58;;;2.40;;
61317;SDS011;47201;40.428;-8.436;2022-12-07T11:56:27;2.20;;;2.10;;
61317;SDS011;47201;40.428;-8.436;2022-12-07T12:03:15;3.05;;;2.67;;
61317;SDS011;47201;40.428;-8.436;2022-12-07T12:05:32;2.67;;;2.47;;
61317;SDS011;47201;40.428;-8.436;2022-12-07T12:07:34;2.35;;;2.25;;
61317;SDS011;47201;40.428;-8.436;2022-12-07T12:09:49;2.50;;;2.10;;
61317;SDS011;47201;40.428;-8.436;2022-12-07T12:22:36;2.65;;;2.25;;
61317;SDS011;47201;40.428;-8.436;2022-12-07T12:24:45;2.35;;;2.20;;
61317;SDS011;47201;40.428;-8.436;2022-12-07T12:27:03;2.53;;;2.08;;
61317;SDS011;47201;40.428;-8.436;2022-12-07T12:31:39;2.78;;;1.95;;
61317;SDS011;47201;40.428;-8.436;2022-12-07T12:33:53;2.45;;;2.10;;
61317;SDS011;47201;40.428;-8.436;2022-12-07T12:42:43;1.70;;;1.60;;
61317;SDS011;47201;40.428;-8.436;2022-12-07T12:47:41;3.20;;;2.20;;
61317;SDS011;47201;40.428;-8.436;2022-12-07T12:54:58;3.35;;;2.17;;
61317;SDS011;47201;40.428;-8.436;2022-12-07T12:59:24;2.67;;;2.38;;
61317;SDS011;47201;40.428;-8.436;2022-12-07T13:03:51;2.42;;;2.33;;
61317;SDS011;47201;40.428;-8.436;2022-12-07T13:10:41;1.80;;;1.70;;
61317;SDS011;47201;40.428;-8.436;2022-12-07T13:12:43;2.10;;;2.00;;
61317;SDS011;47201;40.428;-8.436;2022-12-07T13:14:59;2.25;;;2.15;;
61317;SDS011;47201;40.428;-8.436;2022-12-07T13:17:00;2.05;;;1.95;;
61317;SDS011;47201;40.428;-8.436;2022-12-07T13:21:39;2.10;;;2.00;;
61317;SDS011;47201;40.428;-8.436;2022-12-07T13:23:28;2.13;;;2.03;;
61317;SDS011;47201;40.428;-8.436;2022-12-07T13:25:51;1.95;;;1.83;;
61317;SDS011;47201;40.428;-8.436;2022-12-07T13:28:07;9.80;;;2.35;;
61317;SDS011;47201;40.428;-8.436;2022-12-07T13:30:14;1.90;;;1.75;;
61317;SDS011;47201;40.428;-8.436;2022-12-07T13:32:24;2.25;;;2.15;;
61317;SDS011;47201;40.428;-8.436;2022-12-07T13:36:32;2.20;;;2.10;;
61317;SDS011;47201;40.428;-8.436;2022-12-07T13:38:37;1.80;;;1.80;;
61317;SDS011;47201;40.428;-8.436;2022-12-07T13:40:42;1.92;;;1.83;;
61317;SDS011;47201;40.428;-8.436;2022-12-07T13:42:43;2.00;;;1.90;;
61317;SDS011;47201;40.428;-8.436;2022-12-07T13:44:44;2.47;;;1.65;;
61317;SDS011;47201;40.428;-8.436;2022-12-07T13:47:07;2.85;;;1.55;;
61317;SDS011;47201;40.428;-8.436;2022-12-07T13:49:23;1.77;;;1.67;;
61317;SDS011;47201;40.428;-8.436;2022-12-07T13:51:26;3.05;;;1.77;;
61317;SDS011;47201;40.428;-8.436;2022-12-07T13:53:28;6.75;;;1.92;;
61317;SDS011;47201;40.428;-8.436;2022-12-07T13:55:30;2.15;;;2.00;;
61317;SDS011;47201;40.428;-8.436;2022-12-07T13:57:32;1.80;;;1.70;;
61317;SDS011;47201;40.428;-8.436;2022-12-07T13:59:35;2.08;;;1.80;;
61317;SDS011;47201;40.428;-8.436;2022-12-07T14:01:37;1.92;;;1.83;;
61317;SDS011;47201;40.428;-8.436;2022-12-07T14:03:38;4.30;;;1.50;;
61317;SDS011;47201;40.428;-8.436;2022-12-07T14:05:43;1.33;;;1.20;;
61317;SDS011;47201;40.428;-8.436;2022-12-07T14:07:58;1.20;;;1.10;;
61317;SDS011;47201;40.428;-8.436;2022-12-07T14:10:04;1.33;;;1.23;;
61317;SDS011;47201;40.428;-8.436;2022-12-07T14:12:23;1.35;;;1.10;;
61317;SDS011;47201;40.428;-8.436;2022-12-07T14:14:26;3.13;;;1.35;;
61317;SDS011;47201;40.428;-8.436;2022-12-07T14:16:35;2.00;;;1.23;;
61317;SDS011;47201;40.428;-8.436;2022-12-07T14:18:42;1.15;;;1.15;;
61317;SDS011;47201;40.428;-8.436;2022-12-07T14:20:44;1.13;;;1.00;;
61317;SDS011;47201;40.428;-8.436;2022-12-07T14:22:53;5.18;;;1.20;;
61317;SDS011;47201;40.428;-8.436;2022-12-07T14:24:59;1.35;;;1.23;;
61317;SDS011;47201;40.428;-8.436;2022-12-07T14:27:02;3.75;;;0.98;;
61317;SDS011;47201;40.428;-8.436;2022-12-07T14:31:39;5.88;;;1.10;;